createdAt,value
2022-12-08T00:00:19.941Z,3.83
2022-12-08T00:02:48.410Z,3.80
2022-12-08T00:05:34.324Z,4.22
2022-12-08T00:08:35.824Z,3.90
2022-12-08T00:11:04.564Z,3.65
2022-12-08T00:13:34.222Z,3.45
2022-12-08T00:16:02.975Z,3.22
2022-12-08T00:18:31.345Z,3.40
2022-12-08T00:21:00.541Z,3.20
2022-12-08T00:23:29.482Z,3.30
2022-12-08T00:25:58.063Z,2.95
2022-12-08T00:28:26.702Z,3.30
2022-12-08T00:30:56.414Z,3.00
2022-12-08T00:33:25.249Z,3.10
2022-12-08T00:35:53.690Z,2.67
2022-12-08T00:38:22.305Z,3.10
2022-12-08T00:40:50.621Z,3.13
2022-12-08T00:43:19.381Z,2.72
2022-12-08T00:45:50.768Z,2.83
2022-12-08T00:48:20.521Z,3.35
2022-12-08T00:50:49.296Z,3.10
2022-12-08T00:53:17.692Z,2.88
2022-12-08T00:55:47.449Z,2.92
2022-12-08T00:58:17.411Z,2.88
2022-12-08T01:00:46.355Z,3.08
2022-12-08T01:03:15.272Z,2.80
2022-12-08T01:05:45.212Z,2.67
2022-12-08T01:08:13.673Z,3.00
2022-12-08T01:10:42.380Z,2.80
2022-12-08T01:13:11.467Z,2.92
2022-12-08T01:15:39.786Z,3.00
2022-12-08T01:18:08.183Z,2.80
2022-12-08T01:20:37.032Z,2.72
2022-12-08T01:23:06.820Z,2.85
2022-12-08T01:25:35.907Z,2.80
2022-12-08T01:28:04.615Z,2.67
2022-12-08T01:30:35.995Z,2.93
2022-12-08T01:33:04.270Z,3.20
2022-12-08T01:35:32.561Z,2.60
2022-12-08T01:38:03.758Z,2.57
2022-12-08T01:40:35.973Z,2.63
2022-12-08T01:43:04.329Z,2.55
2022-12-08T01:45:33.863Z,2.60
2022-12-08T01:48:07.182Z,2.42
2022-12-08T01:50:36.602Z,2.42
2022-12-08T01:53:12.176Z,2.55
2022-12-08T01:55:45.042Z,2.60
2022-12-08T01:58:18.041Z,3.10
2022-12-08T02:00:47.906Z,3.60
2022-12-08T02:03:21.501Z,3.50
2022-12-08T02:05:50.131Z,3.20
2022-12-08T02:08:20.356Z,2.67
2022-12-08T02:10:53.253Z,2.55
2022-12-08T02:13:23.979Z,2.72
2022-12-08T02:16:01.767Z,2.50
2022-12-08T02:18:44.195Z,2.30
2022-12-08T02:21:17.332Z,2.23
2022-12-08T02:23:55.215Z,2.20
2022-12-08T02:27:06.224Z,2.47
2022-12-08T02:30:01.911Z,2.20
2022-12-08T02:33:13.648Z,1.63
2022-12-08T02:35:55.372Z,2.30
2022-12-08T02:38:31.955Z,2.30
2022-12-08T02:41:06.111Z,2.03
2022-12-08T02:43:40.790Z,2.20
2022-12-08T02:46:15.253Z,1.92
2022-12-08T02:48:44.519Z,1.95
2022-12-08T02:51:14.426Z,1.70
2022-12-08T02:53:43.439Z,1.92
2022-12-08T02:56:24.404Z,1.80
2022-12-08T02:59:24.535Z,1.77
2022-12-08T03:02:07.344Z,2.10
2022-12-08T03:04:44.684Z,1.88
2022-12-08T03:07:22.276Z,1.83
2022-12-08T03:09:55.725Z,1.92
2022-12-08T03:12:29.759Z,2.15
2022-12-08T03:15:03.675Z,2.20
2022-12-08T03:17:34.529Z,2.00
2022-12-08T03:20:07.418Z,1.75
2022-12-08T03:22:40.714Z,1.98
2022-12-08T03:25:11.657Z,2.00
2022-12-08T03:27:40.254Z,1.80
2022-12-08T03:30:09.931Z,1.80
2022-12-08T03:32:47.961Z,1.90
2022-12-08T03:35:18.478Z,1.80
2022-12-08T03:38:04.829Z,2.13
2022-12-08T03:40:33.131Z,1.88
2022-12-08T03:43:01.935Z,1.80
2022-12-08T03:45:30.535Z,2.10
2022-12-08T03:47:58.864Z,1.90
2022-12-08T03:50:27.704Z,1.73
2022-12-08T03:52:59.926Z,1.83
2022-12-08T03:55:28.403Z,1.70
2022-12-08T03:57:56.942Z,1.45
2022-12-08T04:00:25.684Z,1.75
2022-12-08T04:02:54.353Z,1.80
2022-12-08T04:05:23.012Z,1.33
2022-12-08T04:07:51.404Z,1.67
2022-12-08T04:10:21.144Z,1.50
2022-12-08T04:12:49.580Z,1.77
2022-12-08T04:15:18.215Z,1.95
2022-12-08T04:17:46.997Z,2.05
2022-12-08T04:20:15.484Z,1.80
2022-12-08T04:22:43.810Z,1.77
2022-12-08T04:25:12.757Z,1.90
2022-12-08T04:27:42.624Z,1.80
2022-12-08T04:30:11.919Z,1.90
2022-12-08T04:32:45.774Z,1.67
2022-12-08T04:35:15.941Z,1.80
2022-12-08T04:37:44.536Z,2.05
2022-12-08T04:40:14.861Z,1.80
2022-12-08T04:42:44.834Z,1.75
2022-12-08T04:45:13.444Z,1.67
2022-12-08T04:47:41.781Z,2.00
2022-12-08T04:50:11.138Z,2.00
2022-12-08T04:52:40.553Z,1.60
2022-12-08T04:55:09.437Z,1.70
2022-12-08T04:57:37.934Z,1.80
2022-12-08T05:00:11.108Z,1.85
2022-12-08T05:02:40.895Z,1.70
2022-12-08T05:05:10.157Z,1.90
2022-12-08T05:07:38.644Z,1.80
2022-12-08T05:10:09.839Z,1.58
2022-12-08T05:12:39.397Z,1.90
2022-12-08T05:15:10.951Z,1.92
2022-12-08T05:17:40.530Z,1.83
2022-12-08T05:20:09.985Z,1.90
2022-12-08T05:22:38.399Z,1.70
2022-12-08T05:25:08.471Z,1.60
2022-12-08T05:27:36.963Z,1.67
2022-12-08T05:30:08.885Z,1.60
2022-12-08T05:32:37.197Z,1.40
2022-12-08T05:35:06.165Z,1.73
2022-12-08T05:37:34.725Z,1.50
2022-12-08T05:40:04.080Z,1.63
2022-12-08T05:42:32.726Z,1.50
2022-12-08T05:45:01.813Z,1.40
2022-12-08T05:47:35.858Z,2.00
2022-12-08T05:50:05.259Z,1.60
2022-12-08T05:52:34.535Z,1.50
2022-12-08T05:55:02.966Z,1.60
2022-12-08T05:57:31.393Z,1.42
2022-12-08T06:00:00.996Z,1.75
2022-12-08T06:02:33.320Z,1.77
2022-12-08T06:05:02.117Z,1.50
2022-12-08T06:07:30.854Z,1.60
2022-12-08T06:09:59.177Z,1.58
2022-12-08T06:12:27.814Z,1.60
2022-12-08T06:14:56.651Z,1.60
2022-12-08T06:17:25.245Z,1.77
2022-12-08T06:19:54.964Z,1.42
2022-12-08T06:22:23.581Z,1.33
2022-12-08T06:24:51.865Z,1.55
2022-12-08T06:27:20.359Z,1.75
2022-12-08T06:29:50.453Z,1.77
2022-12-08T06:32:24.370Z,1.55
2022-12-08T06:34:57.253Z,1.53
2022-12-08T06:37:27.017Z,1.33
2022-12-08T06:39:55.328Z,1.40
2022-12-08T06:42:41.293Z,1.55
2022-12-08T06:45:11.027Z,1.30
2022-12-08T06:47:39.635Z,1.45
2022-12-08T06:50:11.384Z,1.50
2022-12-08T06:52:54.172Z,1.52
2022-12-08T06:55:57.547Z,1.20
2022-12-08T06:58:13.534Z,1.60
2022-12-08T07:00:42.482Z,1.50
2022-12-08T07:03:13.068Z,1.20
2022-12-08T07:05:45.195Z,1.55
2022-12-08T07:08:13.734Z,1.65
2022-12-08T07:10:42.341Z,1.38
2022-12-08T07:13:10.736Z,1.67
2022-12-08T07:15:39.685Z,1.80
2022-12-08T07:18:08.331Z,1.80
2022-12-08T07:20:36.901Z,1.83
2022-12-08T07:23:06.983Z,1.67
2022-12-08T07:25:35.406Z,1.50
2022-12-08T07:28:08.657Z,1.60
2022-12-08T07:30:37.050Z,1.70
2022-12-08T07:33:08.533Z,1.75
2022-12-08T07:35:38.357Z,1.90
2022-12-08T07:38:12.573Z,1.88
2022-12-08T07:40:41.234Z,1.85
2022-12-08T07:43:09.885Z,1.98
2022-12-08T07:45:39.390Z,1.98
2022-12-08T07:48:08.905Z,1.73
2022-12-08T07:50:37.508Z,1.80
2022-12-08T07:53:07.924Z,2.00
2022-12-08T07:55:36.429Z,1.80
2022-12-08T07:58:07.789Z,2.08
2022-12-08T08:00:37.571Z,2.00
2022-12-08T08:03:09.044Z,2.03
2022-12-08T08:05:37.752Z,2.23
2022-12-08T08:08:08.088Z,2.50
2022-12-08T08:10:37.735Z,2.47
2022-12-08T08:13:07.136Z,2.08
2022-12-08T08:15:35.917Z,2.17
2022-12-08T08:18:04.695Z,2.15
2022-12-08T08:20:34.318Z,2.40
2022-12-08T08:23:04.219Z,2.20
2022-12-08T08:25:35.994Z,1.80
2022-12-08T08:28:04.835Z,2.38
2022-12-08T08:30:33.253Z,2.10
2022-12-08T08:33:02.615Z,2.47
2022-12-08T08:35:31.468Z,2.30
2022-12-08T08:37:59.999Z,2.55
2022-12-08T08:40:28.584Z,2.40
2022-12-08T08:42:58.950Z,2.63
2022-12-08T08:45:27.396Z,2.38
2022-12-08T08:47:57.462Z,1.98
2022-12-08T08:50:26.086Z,2.03
2022-12-08T08:52:54.690Z,1.90
2022-12-08T08:55:24.855Z,2.42
2022-12-08T08:57:53.207Z,2.15
2022-12-08T09:00:23.600Z,1.60
2022-12-08T09:02:52.158Z,2.08
2022-12-08T09:05:21.758Z,1.83
2022-12-08T09:07:50.196Z,2.00
2022-12-08T09:10:19.022Z,2.30
2022-12-08T09:12:47.394Z,2.10
2022-12-08T09:15:20.844Z,1.80
2022-12-08T09:17:51.193Z,2.00
2022-12-08T09:20:19.942Z,1.90
2022-12-08T09:22:53.413Z,2.35
2022-12-08T09:25:21.762Z,2.20
2022-12-08T09:27:51.750Z,2.00
2022-12-08T09:30:20.500Z,2.20
2022-12-08T09:32:50.397Z,2.17
2022-12-08T09:35:20.051Z,2.53
2022-12-08T09:37:48.709Z,2.20
2022-12-08T09:40:21.157Z,2.00
2022-12-08T09:42:53.421Z,1.95
2022-12-08T09:45:24.292Z,2.67
2022-12-08T09:48:00.658Z,2.20
2022-12-08T09:50:36.159Z,1.98
2022-12-08T09:53:10.729Z,1.67
2022-12-08T09:55:44.027Z,1.75
2022-12-08T09:58:22.278Z,2.20
2022-12-08T10:00:50.697Z,2.00
2022-12-08T10:03:22.435Z,2.15
2022-12-08T10:05:57.562Z,1.90
2022-12-08T10:08:32.253Z,2.00
2022-12-08T10:11:04.870Z,1.73
2022-12-08T10:13:39.085Z,1.60
2022-12-08T10:16:26.568Z,1.80
2022-12-08T10:19:06.400Z,1.70
2022-12-08T10:21:36.107Z,1.50
2022-12-08T10:24:12.993Z,1.40
2022-12-08T10:26:42.727Z,1.70
2022-12-08T10:29:13.845Z,1.83
2022-12-08T10:31:42.764Z,1.75
2022-12-08T10:34:24.380Z,2.08
2022-12-08T10:36:54.785Z,1.80
2022-12-08T10:39:35.980Z,1.63
2022-12-08T10:42:19.941Z,2.00
2022-12-08T10:44:59.385Z,1.85
2022-12-08T10:47:30.121Z,2.23
2022-12-08T10:50:18.691Z,2.00
2022-12-08T10:52:48.156Z,2.22
2022-12-08T10:55:18.131Z,2.00
2022-12-08T10:57:49.029Z,2.50
2022-12-08T11:00:20.249Z,2.25
2022-12-08T11:03:02.379Z,2.13
2022-12-08T11:05:35.141Z,1.70
2022-12-08T11:08:05.932Z,1.70
2022-12-08T11:10:38.310Z,2.22
2022-12-08T11:13:15.651Z,1.75
2022-12-08T11:15:47.325Z,1.90
2022-12-08T11:18:28.982Z,1.80
2022-12-08T11:21:08.297Z,1.90
2022-12-08T11:23:38.063Z,1.70
2022-12-08T11:26:16.760Z,1.77
2022-12-08T11:28:45.281Z,1.70
2022-12-08T11:31:23.739Z,1.70
2022-12-08T11:33:54.768Z,1.80
2022-12-08T11:36:27.487Z,1.85
2022-12-08T11:39:00.557Z,1.80
2022-12-08T11:41:33.343Z,1.95
2022-12-08T11:44:07.381Z,2.45
2022-12-08T11:46:40.204Z,1.90
2022-12-08T11:49:13.225Z,1.80
2022-12-08T11:51:49.473Z,1.60
2022-12-08T11:54:24.041Z,1.92
2022-12-08T11:56:55.925Z,2.00
2022-12-08T11:59:29.714Z,1.57
2022-12-08T12:02:01.020Z,1.83
2022-12-08T12:04:36.859Z,2.05
2022-12-08T12:07:43.233Z,2.08
2022-12-08T12:10:42.083Z,1.50
2022-12-08T12:13:23.681Z,1.88
2022-12-08T12:16:31.769Z,2.08
2022-12-08T12:19:03.536Z,2.20
2022-12-08T12:21:38.282Z,2.13
2022-12-08T12:24:22.236Z,2.10
2022-12-08T12:27:02.839Z,2.20
2022-12-08T12:29:35.347Z,2.00
2022-12-08T12:32:08.301Z,2.10
2022-12-08T12:34:39.814Z,2.20
2022-12-08T12:37:12.229Z,2.00
2022-12-08T12:39:54.935Z,2.40
2022-12-08T12:42:43.031Z,2.55
2022-12-08T12:45:28.667Z,2.13
2022-12-08T12:48:22.348Z,2.20
2022-12-08T12:50:52.179Z,2.10
2022-12-08T12:53:48.887Z,2.38
2022-12-08T12:56:47.079Z,2.15
2022-12-08T12:59:46.177Z,2.47
2022-12-08T13:02:30.257Z,2.40
2022-12-08T13:05:04.343Z,1.63
2022-12-08T13:07:35.444Z,1.40
2022-12-08T13:10:13.443Z,1.00
2022-12-08T13:12:45.175Z,1.10
2022-12-08T13:15:21.509Z,0.80
2022-12-08T13:17:51.738Z,0.90
2022-12-08T13:20:26.148Z,1.00
2022-12-08T13:23:26.847Z,0.70
2022-12-08T13:26:39.769Z,0.98
2022-12-08T13:29:21.496Z,1.03
2022-12-08T13:31:52.342Z,1.10
2022-12-08T13:34:31.277Z,1.00
2022-12-08T13:37:10.049Z,1.27
2022-12-08T13:39:45.992Z,1.30
2022-12-08T13:42:21.563Z,1.25
2022-12-08T13:48:20.406Z,0.80
2022-12-08T13:59:30.427Z,1.10
2022-12-08T14:02:02.597Z,1.20
2022-12-08T14:04:47.819Z,1.20
2022-12-08T14:07:21.199Z,0.60
2022-12-08T14:09:49.870Z,0.90
2022-12-08T14:12:21.505Z,0.95
2022-12-08T14:15:03.020Z,1.35
2022-12-08T14:17:32.428Z,1.10
2022-12-08T14:20:02.613Z,1.50
2022-12-08T14:22:36.523Z,1.25
2022-12-08T14:25:06.333Z,1.00
2022-12-08T14:27:36.681Z,1.20
2022-12-08T14:30:08.652Z,1.00
2022-12-08T14:32:44.363Z,1.42
2022-12-08T14:35:23.509Z,1.40
2022-12-08T14:37:56.606Z,1.20
2022-12-08T14:40:36.308Z,1.08
2022-12-08T14:43:16.255Z,1.40
2022-12-08T14:45:53.567Z,1.05
2022-12-08T14:48:27.471Z,1.05
2022-12-08T14:51:01.915Z,1.20
2022-12-08T14:53:39.744Z,1.30
2022-12-08T14:56:16.597Z,1.10
2022-12-08T14:58:44.980Z,1.13
2022-12-08T15:01:18.151Z,1.00
2022-12-08T15:03:50.862Z,1.00
2022-12-08T15:06:23.401Z,0.95
2022-12-08T15:08:59.831Z,0.80
2022-12-08T15:11:33.479Z,0.77
2022-12-08T15:14:02.061Z,1.30
2022-12-08T15:16:38.485Z,0.88
2022-12-08T15:19:20.173Z,1.20
2022-12-08T15:21:50.071Z,0.90
2022-12-08T15:24:20.854Z,0.80
2022-12-08T15:26:51.681Z,1.00
2022-12-08T15:29:23.415Z,1.00
2022-12-08T15:31:53.716Z,1.50
2022-12-08T15:34:22.941Z,1.48
2022-12-08T15:36:53.093Z,1.30
2022-12-08T15:39:33.023Z,1.20
2022-12-08T15:42:02.471Z,1.50
2022-12-08T15:44:33.039Z,1.50
2022-12-08T15:47:02.532Z,1.38
2022-12-08T15:49:32.448Z,1.30
2022-12-08T15:52:11.156Z,1.30
2022-12-08T15:54:42.481Z,2.13
2022-12-08T15:57:43.721Z,1.63
2022-12-08T16:00:52.325Z,1.50
2022-12-08T16:09:18.228Z,1.55
2022-12-08T16:12:08.491Z,1.95
2022-12-08T16:17:31.200Z,2.00
2022-12-08T16:20:00.980Z,2.58
2022-12-08T16:25:22.656Z,5.18
2022-12-08T16:28:37.041Z,7.70
2022-12-08T16:30:44.112Z,4.22
2022-12-08T16:33:14.411Z,7.55
2022-12-08T16:35:43.353Z,9.00
2022-12-08T16:38:15.528Z,10.88
2022-12-08T16:40:59.899Z,10.93
2022-12-08T16:43:34.523Z,6.45
2022-12-08T16:46:05.140Z,4.82
2022-12-08T16:48:34.164Z,4.63
2022-12-08T16:51:09.364Z,3.80
2022-12-08T16:53:37.864Z,2.92
2022-12-08T16:56:06.556Z,2.70
2022-12-08T16:58:36.374Z,2.83
2022-12-08T17:01:04.926Z,3.65
2022-12-08T17:03:34.576Z,4.35
2022-12-08T17:06:03.213Z,4.00
2022-12-08T17:08:31.968Z,4.38
2022-12-08T17:11:08.817Z,3.00
2022-12-08T17:13:40.702Z,3.45
2022-12-08T17:16:12.572Z,2.60
2022-12-08T17:18:41.365Z,4.70
2022-12-08T17:21:13.121Z,4.82
2022-12-08T17:23:42.261Z,4.43
2022-12-08T17:26:14.643Z,5.20
2022-12-08T17:29:02.108Z,3.85
2022-12-08T17:31:33.410Z,4.10
2022-12-08T17:34:02.498Z,4.78
2022-12-08T17:36:31.089Z,5.28
2022-12-08T17:39:02.033Z,4.80
2022-12-08T17:41:31.434Z,6.05
2022-12-08T17:44:01.181Z,6.85
2022-12-08T17:46:35.746Z,6.60
2022-12-08T17:49:11.829Z,4.15
2022-12-08T17:51:40.108Z,6.78
2022-12-08T17:54:08.499Z,8.23
2022-12-08T17:56:36.835Z,9.30
2022-12-08T17:59:10.490Z,10.70
2022-12-08T18:01:39.740Z,10.77
2022-12-08T18:04:09.435Z,10.77
2022-12-08T18:06:39.445Z,11.20
2022-12-08T18:09:09.111Z,10.55
2022-12-08T18:11:38.045Z,9.90
2022-12-08T18:14:10.562Z,10.32
2022-12-08T18:16:41.273Z,8.43
2022-12-08T18:19:13.373Z,9.57
2022-12-08T18:21:43.315Z,9.48
2022-12-08T18:24:19.249Z,9.95
2022-12-08T18:26:47.995Z,10.70
2022-12-08T18:29:19.575Z,13.05
2022-12-08T18:31:47.916Z,11.68
2022-12-08T18:34:16.504Z,10.30
2022-12-08T18:36:44.810Z,10.75
2022-12-08T18:39:22.834Z,11.85
2022-12-08T18:41:51.212Z,8.30
2022-12-08T18:44:21.973Z,7.70
2022-12-08T18:46:51.002Z,7.80
2022-12-08T18:49:20.398Z,7.63
2022-12-08T18:51:49.107Z,8.38
2022-12-08T18:54:17.780Z,7.87
2022-12-08T18:56:47.365Z,5.80
2022-12-08T18:59:15.876Z,7.93
2022-12-08T19:01:49.032Z,11.83
2022-12-08T19:04:38.530Z,20.52
2022-12-08T19:07:10.590Z,11.60
2022-12-08T19:09:40.029Z,7.80
2022-12-08T19:12:09.004Z,6.30
2022-12-08T19:14:37.853Z,6.95
2022-12-08T19:17:17.580Z,5.82
2022-12-08T19:19:46.318Z,6.28
2022-12-08T19:22:14.929Z,6.25
2022-12-08T19:24:43.393Z,6.35
2022-12-08T19:27:12.225Z,7.18
2022-12-08T19:29:40.669Z,8.30
2022-12-08T19:32:10.377Z,7.85
2022-12-08T19:34:42.287Z,7.70
2022-12-08T19:37:12.950Z,7.95
2022-12-08T19:39:59.528Z,7.55
2022-12-08T19:42:45.774Z,8.05
2022-12-08T19:45:17.792Z,8.73
2022-12-08T19:47:46.447Z,8.00
2022-12-08T19:50:36.065Z,7.97
2022-12-08T19:53:07.304Z,6.95
2022-12-08T19:55:36.572Z,7.30
2022-12-08T19:58:08.677Z,6.60
2022-12-08T20:00:38.689Z,7.25
2022-12-08T20:03:07.802Z,7.20
2022-12-08T20:05:42.134Z,12.38
2022-12-08T20:08:12.327Z,8.82
2022-12-08T20:10:44.084Z,6.88
2022-12-08T20:13:31.019Z,8.40
2022-12-08T20:16:00.657Z,11.60
2022-12-08T20:18:30.312Z,13.13
2022-12-08T20:21:00.534Z,10.73
2022-12-08T20:23:29.248Z,12.90
2022-12-08T20:25:59.411Z,9.02
2022-12-08T20:28:27.762Z,10.27
2022-12-08T20:30:57.140Z,6.82
2022-12-08T20:33:29.032Z,6.90
2022-12-08T20:36:04.025Z,6.10
2022-12-08T20:38:33.916Z,6.60
2022-12-08T20:41:02.191Z,5.32
2022-12-08T20:43:30.544Z,5.90
2022-12-08T20:45:59.366Z,5.32
2022-12-08T20:48:37.275Z,6.03
2022-12-08T20:51:07.978Z,6.55
2022-12-08T20:53:37.419Z,6.00
2022-12-08T20:56:07.143Z,6.43
2022-12-08T20:58:35.940Z,5.45
2022-12-08T21:01:10.895Z,5.63
2022-12-08T21:03:40.276Z,6.13
2022-12-08T21:06:11.535Z,5.28
2022-12-08T21:08:41.792Z,5.65
2022-12-08T21:11:10.970Z,8.30
2022-12-08T21:13:40.554Z,6.68
2022-12-08T21:16:12.302Z,5.70
2022-12-08T21:18:41.561Z,7.10
2022-12-08T21:21:14.311Z,8.68
2022-12-08T21:23:43.891Z,7.70
2022-12-08T21:26:14.068Z,7.70
2022-12-08T21:28:43.280Z,6.60
2022-12-08T21:31:15.515Z,7.57
2022-12-08T21:33:49.224Z,7.57
2022-12-08T21:36:21.355Z,7.93
2022-12-08T21:38:50.635Z,9.70
2022-12-08T21:41:44.060Z,9.52
2022-12-08T21:44:15.025Z,9.27
2022-12-08T21:46:44.143Z,7.80
2022-12-08T21:49:12.941Z,6.88
2022-12-08T21:51:44.183Z,5.93
2022-12-08T21:54:18.211Z,6.60
2022-12-08T21:56:47.596Z,6.47
2022-12-08T21:59:18.124Z,5.95
2022-12-08T22:01:47.035Z,11.15
2022-12-08T22:04:19.057Z,8.18
2022-12-08T22:06:51.697Z,9.88
2022-12-08T22:09:20.168Z,10.70
2022-12-08T22:11:48.926Z,6.88
2022-12-08T22:14:18.626Z,9.15
2022-12-08T22:17:13.035Z,7.00
2022-12-08T22:19:41.707Z,10.75
2022-12-08T22:22:12.143Z,7.00
2022-12-08T22:24:41.699Z,6.57
2022-12-08T22:27:11.273Z,10.55
2022-12-08T22:29:39.913Z,11.77
2022-12-08T22:32:08.696Z,8.80
2022-12-08T22:34:37.676Z,6.47
2022-12-08T22:37:06.206Z,5.45
2022-12-08T22:39:36.896Z,9.30
2022-12-08T22:42:05.686Z,22.08
2022-12-08T22:44:33.957Z,9.85
2022-12-08T22:47:02.723Z,6.78
2022-12-08T22:49:31.687Z,6.18
2022-12-08T22:52:00.518Z,8.55
2022-12-08T22:54:29.372Z,11.80
2022-12-08T22:57:00.500Z,11.60
2022-12-08T22:59:30.371Z,11.38
2022-12-08T23:01:58.686Z,11.20
2022-12-08T23:04:27.294Z,10.02
2022-12-08T23:06:55.877Z,6.70
2022-12-08T23:09:24.503Z,6.28
2022-12-08T23:11:53.602Z,6.53
2022-12-08T23:14:23.933Z,7.73
2022-12-08T23:16:54.753Z,6.55
2022-12-08T23:19:24.813Z,7.37
2022-12-08T23:21:54.535Z,8.20
2022-12-08T23:24:22.826Z,7.32
2022-12-08T23:26:51.448Z,7.80
2022-12-08T23:29:22.188Z,7.00
2022-12-08T23:31:52.114Z,6.80
2022-12-08T23:34:20.984Z,6.93
2022-12-08T23:36:49.852Z,6.15
2022-12-08T23:39:18.212Z,6.83
2022-12-08T23:41:47.179Z,7.60
2022-12-08T23:44:18.814Z,7.83
2022-12-08T23:46:50.367Z,6.28
2022-12-08T23:49:18.846Z,11.70
2022-12-08T23:51:47.097Z,8.00
2022-12-08T23:54:15.848Z,10.73
2022-12-08T23:56:44.734Z,10.18
2022-12-08T23:59:13.241Z,21.63
